Time;durP1;ratioP1;P1;durP2;ratioP2;P2;SDS_P1;SDS_P2;PMS_P1;PMS_P2;Temp;Humidity;BMP_temperature;BMP_pressure;BME280_temperature;BME280_humidity;BME280_pressure;Samples;Min_cycle;Max_cycle;Signal;HPM_P1;HPM_P2
2023/09/24 00:02:09;;;;;;;1999.90;999.90;;;13.80;99.90;;;;;;5089075;28;20433;-72
2023/09/24 00:04:36;;;;;;;1999.90;999.90;;;13.70;99.90;;;;;;5086006;28;20430;-68
2023/09/24 00:07:03;;;;;;;1999.90;999.90;;;13.70;99.90;;;;;;5082519;28;20455;-70
2023/09/24 00:09:31;;;;;;;1999.90;999.90;;;13.70;99.90;;;;;;5084359;28;20422;-70
2023/09/24 00:11:58;;;;;;;1999.90;999.90;;;13.70;99.90;;;;;;5087091;28;20430;-71
2023/09/24 00:14:27;;;;;;;1999.90;999.90;;;13.80;99.90;;;;;;5090862;28;20866;-70
2023/09/24 00:16:55;;;;;;;1999.90;999.90;;;13.70;99.90;;;;;;5082251;28;20435;-71
2023/09/24 00:19:22;;;;;;;1999.90;999.90;;;13.70;99.90;;;;;;5083302;28;20429;-70
2023/09/24 00:21:49;;;;;;;1999.90;999.90;;;13.70;99.90;;;;;;5087632;28;20465;-70
2023/09/24 00:24:17;;;;;;;1999.90;999.90;;;13.60;99.90;;;;;;5090915;28;20433;-70
2023/09/24 00:26:44;;;;;;;1999.90;999.90;;;13.70;99.90;;;;;;5088383;28;20426;-70
2023/09/24 00:29:11;;;;;;;1999.90;999.90;;;13.70;99.90;;;;;;5083395;28;20512;-71
2023/09/24 00:31:39;;;;;;;1999.90;999.90;;;13.80;99.90;;;;;;5087910;28;20437;-71
2023/09/24 00:34:06;;;;;;;1999.90;999.90;;;13.80;99.90;;;;;;5087511;28;20449;-71
2023/09/24 00:36:33;;;;;;;1999.90;999.90;;;13.80;99.90;;;;;;5089040;28;20450;-72
2023/09/24 00:39:01;;;;;;;1999.90;999.90;;;13.70;99.90;;;;;;5084837;28;20489;-71
2023/09/24 00:41:28;;;;;;;1999.90;999.90;;;13.70;99.90;;;;;;5087161;28;20430;-71
2023/09/24 00:43:54;;;;;;;1999.90;999.90;;;13.70;99.90;;;;;;5082740;28;20431;-70
2023/09/24 00:46:22;;;;;;;1999.90;999.90;;;13.90;99.90;;;;;;5090631;28;20430;-71
2023/09/24 00:48:52;;;;;;;1999.90;999.90;;;13.90;99.90;;;;;;5084632;28;20427;-69
2023/09/24 00:51:21;;;;;;;1999.90;999.90;;;14.00;99.90;;;;;;5087470;28;20429;-70
2023/09/24 00:53:51;;;;;;;1999.90;999.90;;;14.10;99.90;;;;;;5084901;28;20832;-70
2023/09/24 00:56:18;;;;;;;1999.90;999.90;;;14.20;99.90;;;;;;5087169;28;20508;-71
2023/09/24 00:58:47;;;;;;;1999.90;999.90;;;14.20;99.90;;;;;;5089930;28;20434;-73
2023/09/24 01:01:14;;;;;;;1999.90;999.90;;;14.20;99.90;;;;;;5087908;28;20483;-70
2023/09/24 01:03:41;;;;;;;1999.90;999.90;;;14.10;99.90;;;;;;5084886;28;20467;-70
2023/09/24 01:06:09;;;;;;;1999.90;999.90;;;14.00;99.90;;;;;;5087107;28;20434;-71
2023/09/24 01:08:36;;;;;;;1999.90;999.90;;;14.10;99.90;;;;;;5089553;28;20414;-71
2023/09/24 01:11:03;;;;;;;1999.90;999.90;;;14.20;99.90;;;;;;5087118;28;20506;-70
2023/09/24 01:13:37;;;;;;;1999.90;999.90;;;14.20;99.90;;;;;;5087066;28;20966;-72
2023/09/24 01:16:06;;;;;;;1999.90;999.90;;;14.10;99.90;;;;;;5086795;28;20426;-71
2023/09/24 01:18:34;;;;;;;1999.90;999.90;;;14.20;99.90;;;;;;5087040;28;20510;-72
2023/09/24 01:21:02;;;;;;;1999.90;999.90;;;14.10;99.90;;;;;;5088332;28;20436;-71
2023/09/24 01:23:36;;;;;;;1999.90;999.90;;;14.10;99.90;;;;;;5087952;28;20491;-72
2023/09/24 01:26:03;;;;;;;1999.90;999.90;;;14.00;99.90;;;;;;5085399;28;20956;-70
2023/09/24 01:28:30;;;;;;;1999.90;999.90;;;14.10;99.90;;;;;;5094209;28;20421;-72
2023/09/24 01:30:58;;;;;;;1999.90;999.90;;;14.10;99.90;;;;;;5107726;28;20448;-72
2023/09/24 01:33:25;;;;;;;1999.90;999.90;;;14.30;99.90;;;;;;5104809;28;20436;-72
2023/09/24 01:35:52;;;;;;;1999.90;999.90;;;14.30;99.90;;;;;;5092247;28;20434;-72
2023/09/24 01:38:20;;;;;;;1999.90;999.90;;;14.30;99.90;;;;;;5084781;28;21935;-71
2023/09/24 01:40:49;;;;;;;1999.90;999.90;;;14.20;99.90;;;;;;5085128;28;20432;-71
2023/09/24 01:43:16;;;;;;;1999.90;999.90;;;14.20;99.90;;;;;;5087623;28;20515;-71
2023/09/24 01:45:44;;;;;;;1999.90;999.90;;;14.10;99.90;;;;;;5084718;28;20430;-71
2023/09/24 01:48:11;;;;;;;1999.90;999.90;;;14.40;99.90;;;;;;5083170;28;20425;-70
2023/09/24 01:50:38;;;;;;;1999.90;999.90;;;14.40;99.90;;;;;;5084708;28;20517;-70
2023/09/24 01:53:06;;;;;;;1999.90;999.90;;;14.30;99.90;;;;;;5088853;28;20949;-70
2023/09/24 01:55:32;;;;;;;1999.90;999.90;;;14.20;99.90;;;;;;5085743;28;20438;-69
2023/09/24 01:58:02;;;;;;;1999.90;999.90;;;14.10;99.90;;;;;;5085562;28;20513;-70
2023/09/24 02:00:29;;;;;;;1999.90;999.90;;;14.00;99.90;;;;;;5083753;28;20919;-71
2023/09/24 02:02:59;;;;;;;1999.90;999.90;;;13.90;99.90;;;;;;5087473;28;20818;-70
2023/09/24 02:05:32;;;;;;;1999.90;999.90;;;14.00;99.90;;;;;;5089200;28;20860;-70
2023/09/24 02:07:59;;;;;;;1999.90;999.90;;;14.00;99.90;;;;;;5083677;28;20424;-70
2023/09/24 02:10:27;;;;;;;1999.90;999.90;;;14.00;99.90;;;;;;5086294;28;20425;-70
2023/09/24 02:12:55;;;;;;;1999.90;999.90;;;14.00;99.90;;;;;;5084818;28;20434;-72
2023/09/24 02:15:25;;;;;;;1999.90;999.90;;;14.00;99.90;;;;;;5089096;28;20440;-70
2023/09/24 02:17:51;;;;;;;1999.90;999.90;;;13.90;99.90;;;;;;5084557;28;20482;-70
2023/09/24 02:20:25;;;;;;;1999.90;999.90;;;13.90;99.90;;;;;;5083766;28;20440;-71
2023/09/24 02:22:56;;;;;;;1999.90;999.90;;;13.80;99.90;;;;;;5086223;28;20440;-70
2023/09/24 02:25:24;;;;;;;1999.90;999.90;;;13.80;99.90;;;;;;5086142;28;20430;-70
2023/09/24 02:27:51;;;;;;;1999.90;999.90;;;13.80;99.90;;;;;;5086874;28;20558;-71
2023/09/24 02:30:19;;;;;;;1999.90;999.90;;;13.80;99.90;;;;;;5087108;28;20426;-70
2023/09/24 02:32:48;;;;;;;1999.90;999.90;;;13.80;99.90;;;;;;5085941;28;20776;-71
2023/09/24 02:35:15;;;;;;;1999.90;999.90;;;13.90;99.90;;;;;;5085763;28;20438;-72
2023/09/24 02:37:44;;;;;;;1999.90;999.90;;;14.00;99.90;;;;;;5088564;28;20433;-70
2023/09/24 02:40:16;;;;;;;1999.90;999.90;;;13.90;99.90;;;;;;5087152;28;20425;-70
2023/09/24 02:42:45;;;;;;;1999.90;999.90;;;14.10;99.90;;;;;;5082242;28;20430;-70
2023/09/24 02:45:12;;;;;;;1999.90;999.90;;;14.20;99.90;;;;;;5082890;28;20490;-69
2023/09/24 02:47:39;;;;;;;1999.90;999.90;;;14.00;99.90;;;;;;5085702;28;20512;-70
2023/09/24 02:50:13;;;;;;;1999.90;999.90;;;13.90;99.90;;;;;;5088238;28;20433;-69
2023/09/24 02:52:40;;;;;;;1999.90;999.90;;;13.80;99.90;;;;;;5087220;28;20437;-69
2023/09/24 02:55:08;;;;;;;1999.90;999.90;;;13.80;99.90;;;;;;5085740;28;20429;-70
2023/09/24 02:57:35;;;;;;;1999.90;999.90;;;13.90;99.90;;;;;;5086897;28;20514;-71
2023/09/24 03:00:02;;;;;;;1999.90;999.90;;;14.00;99.90;;;;;;5090377;28;20434;-70
2023/09/24 03:02:29;;;;;;;1999.90;999.90;;;14.30;99.90;;;;;;5090752;28;20448;-70
2023/09/24 03:04:56;;;;;;;1999.90;999.90;;;14.60;99.90;;;;;;5089173;28;21157;-71
2023/09/24 03:07:24;;;;;;;1999.90;999.90;;;14.60;99.90;;;;;;5091570;28;20437;-70
2023/09/24 03:09:53;;;;;;;1999.90;999.90;;;14.50;99.90;;;;;;5091310;28;20475;-71
2023/09/24 03:12:19;;;;;;;1999.90;999.90;;;14.50;99.90;;;;;;5090064;28;21182;-70
2023/09/24 03:14:46;;;;;;;1999.90;999.90;;;14.60;99.90;;;;;;5090297;28;20816;-71
2023/09/24 03:17:13;;;;;;;1999.90;999.90;;;14.50;99.90;;;;;;5088230;28;20424;-72
2023/09/24 03:19:40;;;;;;;1999.90;999.90;;;14.40;99.90;;;;;;5091367;28;20432;-70
2023/09/24 03:22:06;;;;;;;1999.90;999.90;;;14.40;99.90;;;;;;5090016;28;20430;-70
2023/09/24 03:24:34;;;;;;;1999.90;999.90;;;14.20;99.90;;;;;;5089772;28;20472;-69
2023/09/24 03:27:02;;;;;;;1999.90;999.90;;;14.20;99.90;;;;;;5089724;28;20813;-70
2023/09/24 03:29:28;;;;;;;1999.90;999.90;;;14.30;99.90;;;;;;5090455;28;20920;-70
2023/09/24 03:31:55;;;;;;;1999.90;999.90;;;14.50;99.90;;;;;;5089588;28;20434;-69
2023/09/24 03:34:22;;;;;;;1999.90;999.90;;;14.50;99.90;;;;;;5089685;28;20440;-70
2023/09/24 03:36:49;;;;;;;1999.90;999.90;;;14.30;99.90;;;;;;5090082;28;20819;-70
2023/09/24 03:39:15;;;;;;;1999.90;999.90;;;14.50;99.90;;;;;;5091136;28;20797;-70
2023/09/24 03:41:43;;;;;;;1999.90;999.90;;;14.60;99.90;;;;;;5090479;28;20434;-70
2023/09/24 03:44:11;;;;;;;1999.90;999.90;;;14.60;99.90;;;;;;5089370;28;20463;-71
2023/09/24 03:46:38;;;;;;;1999.90;999.90;;;14.60;99.90;;;;;;5091060;28;20501;-70
2023/09/24 03:49:04;;;;;;;1999.90;999.90;;;14.60;99.90;;;;;;5090929;28;20432;-68
2023/09/24 03:51:31;;;;;;;1999.90;999.90;;;14.60;99.90;;;;;;5090030;28;20433;-72
2023/09/24 03:53:58;;;;;;;1999.90;999.90;;;14.60;99.90;;;;;;5090431;28;20426;-70
2023/09/24 03:56:25;;;;;;;1999.90;999.90;;;14.70;99.90;;;;;;5082475;28;20430;-69
2023/09/24 03:58:53;;;;;;;1999.90;999.90;;;14.60;99.90;;;;;;5090344;28;20426;-71
2023/09/24 04:01:20;;;;;;;1999.90;999.90;;;14.60;99.90;;;;;;5090285;28;20440;-71
2023/09/24 04:03:47;;;;;;;1999.90;999.90;;;14.50;99.90;;;;;;5090297;28;21051;-70
2023/09/24 04:06:14;;;;;;;1999.90;999.90;;;14.30;99.90;;;;;;5090199;28;20426;-71
2023/09/24 04:08:41;;;;;;;1999.90;999.90;;;14.30;99.90;;;;;;5090720;28;20452;-70
2023/09/24 04:11:08;;;;;;;1999.90;999.90;;;14.40;99.90;;;;;;5088990;28;20903;-70
2023/09/24 04:13:36;;;;;;;1999.90;999.90;;;14.40;99.90;;;;;;5089160;28;20433;-69
2023/09/24 04:16:09;;;;;;;1999.90;999.90;;;14.30;99.90;;;;;;5090496;28;20931;-71
2023/09/24 04:18:37;;;;;;;1999.90;999.90;;;14.30;99.90;;;;;;5090447;28;20430;-71
2023/09/24 04:21:04;;;;;;;1999.90;999.90;;;14.40;99.90;;;;;;5090185;28;20786;-70
2023/09/24 04:23:30;;;;;;;1999.90;999.90;;;14.40;99.90;;;;;;5089893;28;20846;-71
2023/09/24 04:25:57;;;;;;;1999.90;999.90;;;14.50;99.90;;;;;;5088635;28;20434;-71
2023/09/24 04:28:24;;;;;;;1999.90;999.90;;;14.50;99.90;;;;;;5085303;28;20435;-68
2023/09/24 04:30:51;;;;;;;1999.90;999.90;;;14.60;99.90;;;;;;5090798;28;20430;-69
2023/09/24 04:33:19;;;;;;;1999.90;999.90;;;14.70;99.90;;;;;;5089845;28;20456;-71
2023/09/24 04:35:46;;;;;;;1999.90;999.90;;;14.60;99.90;;;;;;5091016;28;20430;-70
2023/09/24 04:38:13;;;;;;;1999.90;999.90;;;14.60;99.90;;;;;;5087434;28;20914;-68
2023/09/24 04:40:40;;;;;;;1999.90;999.90;;;14.70;99.90;;;;;;5086366;28;20430;-70
2023/09/24 04:43:08;;;;;;;1999.90;999.90;;;14.50;99.90;;;;;;5086479;28;20445;-70
2023/09/24 04:45:36;;;;;;;1999.90;999.90;;;14.50;99.90;;;;;;5090496;28;20433;-70
2023/09/24 04:48:03;;;;;;;1999.90;999.90;;;14.50;99.90;;;;;;5082841;28;20426;-70
2023/09/24 04:50:31;;;;;;;1999.90;999.90;;;14.50;99.90;;;;;;5090353;28;20430;-70
2023/09/24 04:52:58;;;;;;;1999.90;999.90;;;14.50;99.90;;;;;;5089265;28;20425;-71
2023/09/24 04:55:25;;;;;;;1999.90;999.90;;;14.50;99.90;;;;;;5083875;28;20441;-71
2023/09/24 04:57:52;;;;;;;1999.90;999.90;;;14.50;99.90;;;;;;5085145;28;20487;-71
2023/09/24 05:00:19;;;;;;;1999.90;999.90;;;14.50;99.90;;;;;;5089947;28;20421;-71
2023/09/24 05:02:47;;;;;;;1999.90;999.90;;;14.50;99.90;;;;;;5082075;28;20430;-70
2023/09/24 05:05:15;;;;;;;1999.90;999.90;;;14.60;99.90;;;;;;5089126;28;20504;-70
2023/09/24 05:07:42;;;;;;;1999.90;999.90;;;14.60;99.90;;;;;;5083489;28;20457;-71
2023/09/24 05:10:09;;;;;;;1999.90;999.90;;;14.70;99.90;;;;;;5089189;28;20919;-69
2023/09/24 05:12:36;;;;;;;1999.90;999.90;;;14.80;99.90;;;;;;5082451;28;20484;-71
2023/09/24 05:15:04;;;;;;;1999.90;999.90;;;14.70;99.90;;;;;;5080770;28;20438;-71
2023/09/24 05:17:33;;;;;;;1999.90;999.90;;;14.80;99.90;;;;;;5088582;28;20434;-71
2023/09/24 05:20:00;;;;;;;1999.90;999.90;;;14.90;99.90;;;;;;5089448;28;20973;-70
2023/09/24 05:22:27;;;;;;;1999.90;999.90;;;14.80;99.90;;;;;;5087949;28;20543;-71
2023/09/24 05:24:56;;;;;;;1999.90;999.90;;;14.90;99.90;;;;;;5081737;28;21165;-72
2023/09/24 05:27:22;;;;;;;1999.90;999.90;;;14.90;99.90;;;;;;5081740;28;20434;-71
2023/09/24 05:29:50;;;;;;;1999.90;999.90;;;15.00;99.90;;;;;;5088913;28;20911;-70
2023/09/24 05:32:17;;;;;;;1999.90;999.90;;;15.00;99.90;;;;;;5086854;28;20461;-70
2023/09/24 05:34:44;;;;;;;1999.90;999.90;;;15.00;99.90;;;;;;5089311;28;20434;-71
2023/09/24 05:37:11;;;;;;;1999.90;999.90;;;14.90;99.90;;;;;;5083705;28;20432;-71
2023/09/24 05:39:37;;;;;;;1999.90;999.90;;;14.90;99.90;;;;;;5083288;28;20800;-71
2023/09/24 05:42:06;;;;;;;1999.90;999.90;;;14.90;99.90;;;;;;5080115;28;20874;-70
2023/09/24 05:44:33;;;;;;;1999.90;999.90;;;15.00;99.90;;;;;;5088989;28;20430;-69
2023/09/24 05:47:00;;;;;;;1999.90;999.90;;;15.10;99.90;;;;;;5089449;28;20437;-71
2023/09/24 05:49:27;;;;;;;1999.90;999.90;;;15.30;99.90;;;;;;5088590;28;20451;-68
2023/09/24 05:51:54;;;;;;;1999.90;999.90;;;15.40;99.90;;;;;;5088660;28;20436;-72
2023/09/24 05:54:21;;;;;;;1999.90;999.90;;;15.20;99.90;;;;;;5077966;28;20489;-70
2023/09/24 05:56:47;;;;;;;1999.90;999.90;;;15.00;99.90;;;;;;5085147;28;20433;-71
2023/09/24 05:59:15;;;;;;;1999.90;999.90;;;15.20;99.90;;;;;;5087785;28;20453;-71
2023/09/24 06:01:43;;;;;;;1999.90;999.90;;;15.30;99.90;;;;;;5081742;28;20427;-71
2023/09/24 06:04:09;;;;;;;1999.90;999.90;;;15.20;99.90;;;;;;5080339;28;20487;-70
2023/09/24 06:06:37;;;;;;;1999.90;999.90;;;15.20;99.90;;;;;;5084778;28;20930;-70
2023/09/24 06:09:08;;;;;;;1999.90;999.90;;;15.30;99.90;;;;;;5084335;28;20436;-70
2023/09/24 06:11:35;;;;;;;1999.90;999.90;;;15.20;99.90;;;;;;5084547;28;20458;-71
2023/09/24 06:14:03;;;;;;;1999.90;999.90;;;15.30;99.90;;;;;;5099830;28;20596;-71
2023/09/24 06:16:31;;;;;;;1999.90;999.90;;;15.40;99.90;;;;;;5105250;28;20431;-71
2023/09/24 06:18:58;;;;;;;1999.90;999.90;;;15.40;99.90;;;;;;5109950;28;20421;-71
2023/09/24 06:21:25;;;;;;;1999.90;999.90;;;15.50;99.90;;;;;;5091478;28;20405;-69
2023/09/24 06:23:51;;;;;;;1999.90;999.90;;;15.50;99.90;;;;;;5086734;28;20785;-70
2023/09/24 06:26:20;;;;;;;1999.90;999.90;;;15.60;99.90;;;;;;5079720;28;20427;-71
2023/09/24 06:28:47;;;;;;;1999.90;999.90;;;15.70;99.90;;;;;;5083906;28;20850;-72
2023/09/24 06:31:13;;;;;;;1999.90;999.90;;;15.80;99.90;;;;;;5085532;28;20465;-69
2023/09/24 06:33:42;;;;;;;1999.90;999.90;;;15.90;99.90;;;;;;5080712;28;20810;-69
2023/09/24 06:36:09;;;;;;;1999.90;999.90;;;16.00;99.90;;;;;;5081992;28;20416;-70
2023/09/24 06:38:36;;;;;;;1999.90;999.90;;;16.10;99.90;;;;;;5086667;28;20438;-69
2023/09/24 06:41:04;;;;;;;1999.90;999.90;;;16.10;99.90;;;;;;5084910;28;20426;-70
2023/09/24 06:43:32;;;;;;;1999.90;999.90;;;16.40;99.90;;;;;;5082920;28;20430;-70
2023/09/24 06:45:59;;;;;;;1999.90;999.90;;;16.60;99.90;;;;;;5089175;28;20437;-71
2023/09/24 06:48:26;;;;;;;1999.90;999.90;;;16.50;99.90;;;;;;5084583;28;20427;-70
2023/09/24 06:50:54;;;;;;;1999.90;999.90;;;16.50;99.90;;;;;;5077513;28;20510;-70
2023/09/24 06:53:21;;;;;;;1999.90;999.90;;;16.30;99.90;;;;;;5082315;28;20431;-70
2023/09/24 06:55:48;;;;;;;1999.90;999.90;;;16.40;99.90;;;;;;5082241;28;20436;-69
2023/09/24 06:58:15;;;;;;;1999.90;999.90;;;16.40;99.90;;;;;;5087634;28;20502;-70
2023/09/24 07:00:42;;;;;;;1999.90;999.90;;;16.60;99.90;;;;;;5084138;28;20935;-71
2023/09/24 07:03:09;;;;;;;1999.90;999.90;;;16.90;99.90;;;;;;5083244;28;20433;-70
2023/09/24 07:05:37;;;;;;;1999.90;999.90;;;17.00;99.90;;;;;;5078301;28;20448;-70
2023/09/24 07:08:05;;;;;;;1999.90;999.90;;;16.90;99.90;;;;;;5087605;28;20502;-70
2023/09/24 07:10:32;;;;;;;1999.90;999.90;;;16.80;99.90;;;;;;5088122;28;20912;-70
2023/09/24 07:12:59;;;;;;;1999.90;999.90;;;16.90;99.90;;;;;;5086688;28;20436;-70
2023/09/24 07:15:26;;;;;;;1999.90;999.90;;;17.00;99.90;;;;;;5082387;28;20510;-70
2023/09/24 07:17:53;;;;;;;1999.90;999.90;;;16.80;99.90;;;;;;5083417;28;20434;-70
2023/09/24 07:20:20;;;;;;;1999.90;999.90;;;16.90;99.90;;;;;;5089406;28;20468;-69
2023/09/24 07:22:47;;;;;;;1999.90;999.90;;;16.80;99.90;;;;;;5089643;28;20418;-72
2023/09/24 07:25:15;;;;;;;1999.90;999.90;;;17.20;99.90;;;;;;5081572;28;20826;-70
2023/09/24 07:27:42;;;;;;;1999.90;999.90;;;17.00;99.90;;;;;;5087598;28;20425;-69
2023/09/24 07:30:09;;;;;;;1999.90;999.90;;;17.20;99.90;;;;;;5089411;28;20479;-71
2023/09/24 07:32:37;;;;;;;1999.90;999.90;;;17.20;99.90;;;;;;5085859;28;20410;-70
2023/09/24 07:35:04;;;;;;;1999.90;999.90;;;17.30;99.90;;;;;;5087144;28;20436;-70
2023/09/24 07:37:31;;;;;;;1999.90;999.90;;;17.30;99.90;;;;;;5083770;28;21160;-70
2023/09/24 07:39:58;;;;;;;1999.90;999.90;;;17.30;99.90;;;;;;5088205;28;20433;-71
2023/09/24 07:42:26;;;;;;;1999.90;999.90;;;17.40;99.90;;;;;;5084725;28;20448;-70
2023/09/24 07:44:53;;;;;;;1999.90;999.90;;;17.30;99.90;;;;;;5089356;28;20432;-70
2023/09/24 07:47:19;;;;;;;1999.90;999.90;;;17.40;99.90;;;;;;5090397;28;20432;-68
2023/09/24 07:49:46;;;;;;;1999.90;999.90;;;17.50;99.90;;;;;;5090103;28;20433;-70
2023/09/24 07:52:14;;;;;;;1999.90;999.90;;;17.60;99.90;;;;;;5085620;28;20429;-70
2023/09/24 07:54:41;;;;;;;1999.90;999.90;;;17.40;99.90;;;;;;5087100;28;20507;-70
2023/09/24 07:57:07;;;;;;;1999.90;999.90;;;17.40;99.90;;;;;;5085847;28;20430;-70
2023/09/24 07:59:35;;;;;;;1999.90;999.90;;;17.50;99.90;;;;;;5089839;28;20426;-67
2023/09/24 08:02:02;;;;;;;1999.90;999.90;;;17.50;99.90;;;;;;5086799;28;20426;-69
2023/09/24 08:04:29;;;;;;;1999.90;999.90;;;17.40;99.90;;;;;;5086727;28;20470;-70
2023/09/24 08:06:56;;;;;;;1999.90;999.90;;;17.40;99.90;;;;;;5087417;28;20437;-70
2023/09/24 08:09:23;;;;;;;1999.90;999.90;;;17.70;99.90;;;;;;5082794;28;20519;-72
2023/09/24 08:11:50;;;;;;;1999.90;999.90;;;17.70;99.90;;;;;;5086959;28;20432;-71
2023/09/24 08:14:16;;;;;;;1999.90;999.90;;;17.90;99.90;;;;;;5087897;28;20434;-71
2023/09/24 08:16:45;;;;;;;1999.90;999.90;;;18.30;99.90;;;;;;5085909;28;20425;-70
2023/09/24 08:19:11;;;;;;;1999.90;999.90;;;18.20;99.90;;;;;;5084678;28;20977;-70
2023/09/24 08:21:39;;;;;;;1999.90;999.90;;;18.30;99.90;;;;;;5092589;28;20409;-70
2023/09/24 08:24:06;;;;;;;1999.90;999.90;;;18.40;99.90;;;;;;5088914;28;20449;-68
2023/09/24 08:26:33;;;;;;;1999.90;999.90;;;18.40;99.90;;;;;;5092195;28;20410;-70
2023/09/24 08:29:02;;;;;;;1999.90;999.90;;;18.60;99.90;;;;;;5092241;28;20425;-70
2023/09/24 08:31:29;;;;;;;1999.90;999.90;;;18.60;99.90;;;;;;5086291;28;20418;-69
2023/09/24 08:33:57;;;;;;;1999.90;999.90;;;18.70;99.90;;;;;;5081683;28;20431;-70
2023/09/24 08:36:24;;;;;;;1999.90;999.90;;;18.70;99.90;;;;;;5090280;28;20440;-70
2023/09/24 08:38:51;;;;;;;1999.90;999.90;;;18.80;99.90;;;;;;5088281;28;20854;-70
2023/09/24 08:41:18;;;;;;;1999.90;999.90;;;18.90;99.90;;;;;;5087388;28;20433;-70
2023/09/24 08:43:46;;;;;;;1999.90;999.90;;;19.10;99.90;;;;;;5081391;28;20845;-70
2023/09/24 08:46:13;;;;;;;1999.90;999.90;;;19.30;99.90;;;;;;5089723;28;20430;-68
2023/09/24 08:48:40;;;;;;;1999.90;999.90;;;19.70;99.90;;;;;;5090141;28;20430;-71
2023/09/24 08:51:10;;;;;;;1999.90;999.90;;;19.70;99.90;;;;;;5089225;28;20426;-68
2023/09/24 08:53:39;;;;;;;1999.90;999.90;;;20.20;99.90;;;;;;5086219;28;20430;-72
2023/09/24 08:56:06;;;;;;;1999.90;999.90;;;19.80;99.90;;;;;;5083246;28;20425;-70
2023/09/24 08:58:33;;;;;;;1999.90;999.90;;;20.10;99.90;;;;;;5087917;28;20435;-69
2023/09/24 09:01:01;;;;;;;1999.90;999.90;;;20.00;99.90;;;;;;5088051;28;20425;-70
2023/09/24 09:03:28;;;;;;;1999.90;999.90;;;19.70;99.90;;;;;;5084035;28;20875;-70
2023/09/24 09:05:55;;;;;;;1999.90;999.90;;;19.50;99.90;;;;;;5089929;28;20818;-70
2023/09/24 09:08:23;;;;;;;1999.90;999.90;;;19.70;99.90;;;;;;5092154;28;20410;-70
2023/09/24 09:10:50;;;;;;;1999.90;999.90;;;19.90;99.90;;;;;;5092075;28;20409;-69
2023/09/24 09:13:18;;;;;;;1999.90;999.90;;;20.00;99.90;;;;;;5090270;28;20429;-70
2023/09/24 09:15:46;;;;;;;1999.90;999.90;;;20.00;99.90;;;;;;5088131;28;20847;-71
2023/09/24 09:18:23;;;;;;;1999.90;999.90;;;20.20;99.90;;;;;;5091945;28;20418;-70
2023/09/24 09:20:51;;;;;;;1999.90;999.90;;;20.30;99.90;;;;;;5091604;28;20499;-69
2023/09/24 09:23:32;;;;;;;1999.90;999.90;;;20.20;99.90;;;;;;5091723;28;20400;-70
2023/09/24 09:25:59;;;;;;;1999.90;999.90;;;20.30;99.90;;;;;;5082705;28;20821;-69
2023/09/24 09:28:27;;;;;;;1999.90;999.90;;;20.40;99.90;;;;;;5091947;28;20406;-70
2023/09/24 09:31:01;;;;;;;1999.90;999.90;;;20.40;99.90;;;;;;5091328;28;20413;-71
2023/09/24 09:33:29;;;;;;;1999.90;999.90;;;20.00;99.90;;;;;;5091867;28;20414;-70
2023/09/24 09:35:57;;;;;;;1999.90;999.90;;;19.70;99.90;;;;;;5091514;28;20409;-70
2023/09/24 09:38:24;;;;;;;1999.90;999.90;;;19.70;99.90;;;;;;5089169;28;20434;-70
2023/09/24 09:40:55;;;;;;;1999.90;999.90;;;19.40;99.90;;;;;;5083506;28;20940;-69
2023/09/24 09:43:24;;;;;;;1999.90;999.90;;;19.00;99.90;;;;;;5091203;28;20415;-70
2023/09/24 09:45:53;;;;;;;1999.90;999.90;;;18.80;99.90;;;;;;5091414;28;20436;-70
2023/09/24 09:48:30;;;;;;;1999.90;999.90;;;19.00;99.90;;;;;;5091198;28;20418;-66
2023/09/24 09:51:06;;;;;;;1999.90;999.90;;;19.10;99.90;;;;;;5091066;28;20903;-71
2023/09/24 09:53:34;;;;;;;1999.90;999.90;;;19.30;99.90;;;;;;5085133;28;20807;-70
2023/09/24 09:56:05;;;;;;;1999.90;999.90;;;19.70;99.90;;;;;;5082967;28;20905;-70
2023/09/24 09:58:34;;;;;;;1999.90;999.90;;;19.90;99.90;;;;;;5085280;28;20819;-70
2023/09/24 10:01:03;;;;;;;1999.90;999.90;;;20.10;99.90;;;;;;5091032;28;20426;-72
2023/09/24 10:03:33;;;;;;;1999.90;999.90;;;20.30;99.90;;;;;;5091013;28;20417;-70
2023/09/24 10:06:01;;;;;;;1999.90;999.90;;;21.10;99.90;;;;;;5088235;28;20430;-70
2023/09/24 10:08:42;;;;;;;1999.90;999.90;;;20.80;99.90;;;;;;5085783;28;20508;-70
2023/09/24 10:11:12;;;;;;;1999.90;999.90;;;20.80;99.90;;;;;;5090900;28;20406;-69
2023/09/24 10:13:49;;;;;;;1999.90;999.90;;;21.20;99.90;;;;;;5090835;28;20416;-70
2023/09/24 10:16:37;;;;;;;1999.90;999.90;;;21.70;99.90;;;;;;5090753;28;20413;-70
2023/09/24 10:19:06;;;;;;;1999.90;999.90;;;21.90;99.90;;;;;;5085627;28;20437;-71
2023/09/24 10:21:33;;;;;;;1999.90;999.90;;;21.70;99.10;;;;;;5086236;28;20801;-71
2023/09/24 10:24:22;;;;;;;1999.90;999.90;;;21.90;98.80;;;;;;5090586;28;20418;-71
2023/09/24 10:26:54;;;;;;;1999.90;999.90;;;22.20;97.80;;;;;;5090493;28;20414;-71
2023/09/24 10:29:59;;;;;;;1999.90;999.90;;;21.90;97.70;;;;;;5090848;28;20406;-72
2023/09/24 10:32:29;;;;;;;1999.90;999.90;;;21.30;99.00;;;;;;5088813;28;20495;-70
2023/09/24 10:35:11;;;;;;;1999.90;999.90;;;20.90;99.40;;;;;;5083862;28;20416;-70
2023/09/24 10:38:00;;;;;;;1999.90;999.90;;;20.80;99.90;;;;;;5090691;28;20421;-68
2023/09/24 10:40:28;;;;;;;1999.90;999.90;;;21.10;99.60;;;;;;5090357;28;20422;-70
2023/09/24 10:43:20;;;;;;;1999.90;999.90;;;20.80;98.90;;;;;;5090118;28;20414;-70
2023/09/24 10:45:48;;;;;;;1999.90;999.90;;;20.50;99.80;;;;;;5089989;28;20405;-70
2023/09/24 10:48:17;;;;;;;1999.90;999.90;;;20.20;99.90;;;;;;5078500;28;20856;-70
2023/09/24 10:50:44;;;;;;;1999.90;999.90;;;20.50;99.90;;;;;;5089776;28;20414;-69
2023/09/24 10:53:11;;;;;;;1999.90;999.90;;;20.90;99.60;;;;;;5087016;28;20511;-71
2023/09/24 10:55:40;;;;;;;1999.90;999.90;;;20.90;99.90;;;;;;5085775;28;20418;-70
2023/09/24 10:58:14;;;;;;;1999.90;999.90;;;20.80;99.90;;;;;;5090470;28;20776;-70
2023/09/24 11:00:43;;;;;;;1999.90;999.90;;;20.30;99.90;;;;;;5086088;28;20430;-71
2023/09/24 11:03:12;;;;;;;1999.90;999.90;;;20.10;99.90;;;;;;5085780;28;20450;-69
2023/09/24 11:05:45;;;;;;;1999.90;999.90;;;19.80;99.90;;;;;;5090276;28;20471;-70
2023/09/24 11:08:15;;;;;;;1999.90;999.90;;;19.60;99.90;;;;;;5090330;28;20413;-71
2023/09/24 11:10:41;;;;;;;1999.90;999.90;;;19.80;99.90;;;;;;5090319;28;20406;-71
2023/09/24 11:13:08;;;;;;;1999.90;999.90;;;20.10;99.90;;;;;;5090103;28;20454;-71
2023/09/24 11:15:36;;;;;;;1999.90;999.90;;;20.40;99.90;;;;;;5084254;28;20440;-70
2023/09/24 11:18:03;;;;;;;1999.90;999.90;;;20.50;99.80;;;;;;5088505;28;20399;-70
2023/09/24 11:20:32;;;;;;;1999.90;999.90;;;20.90;99.90;;;;;;5093655;28;20464;-70
2023/09/24 11:23:02;;;;;;;1999.90;999.90;;;21.20;99.50;;;;;;5093613;28;20445;-71
2023/09/24 11:25:29;;;;;;;1999.90;999.90;;;21.50;98.50;;;;;;5093946;28;20406;-70
2023/09/24 11:27:57;;;;;;;1999.90;999.90;;;21.50;99.30;;;;;;5092777;28;20412;-71
2023/09/24 11:30:27;;;;;;;1999.90;999.90;;;21.80;99.70;;;;;;5086348;28;20447;-71
2023/09/24 11:32:54;;;;;;;1999.90;999.90;;;22.60;99.80;;;;;;5090733;28;20413;-71
2023/09/24 11:35:25;;;;;;;1999.90;999.90;;;22.50;97.80;;;;;;5087255;28;20914;-73
2023/09/24 11:37:53;;;;;;;1999.90;999.90;;;22.40;97.70;;;;;;5090398;28;20547;-72
2023/09/24 11:40:31;;;;;;;1999.90;999.90;;;22.60;96.90;;;;;;5087793;28;20897;-71
2023/09/24 11:42:59;;;;;;;1999.90;999.90;;;22.80;95.60;;;;;;5084155;28;21967;-70
2023/09/24 11:45:43;;;;;;;1999.90;999.90;;;22.90;96.80;;;;;;5089313;28;20425;-69
2023/09/24 11:48:12;;;;;;;1999.90;999.90;;;22.60;96.20;;;;;;5085586;28;20415;-70
2023/09/24 11:50:40;;;;;;;1999.90;999.90;;;23.00;95.40;;;;;;5090362;28;20414;-72
2023/09/24 11:53:07;;;;;;;1999.90;999.90;;;22.80;95.90;;;;;;5085788;28;20810;-70
2023/09/24 11:55:35;;;;;;;1999.90;999.90;;;22.20;96.70;;;;;;5089141;28;20442;-71
2023/09/24 11:58:04;;;;;;;1999.90;999.90;;;21.90;97.50;;;;;;5088315;28;20437;-71
2023/09/24 12:00:30;;;;;;;1999.90;999.90;;;21.80;96.70;;;;;;5089502;28;20787;-72
2023/09/24 12:02:59;;;;;;;1999.90;999.90;;;21.70;96.50;;;;;;5089349;28;21259;-71
2023/09/24 12:05:26;;;;;;;1999.90;999.90;;;21.90;96.60;;;;;;5089132;28;20979;-72